sensor_id;sensor_type;location;lat;lon;timestamp;pressure;altitude;pressure_sealevel;temperature;humidity
7824;BME280;3957;48.61947800;9.05303100;2023-01-24T00:00:23;97285.63;;;-0.70;100.00
7824;BME280;3957;48.61947800;9.05303100;2023-01-24T00:01:24;97294.75;;;-0.75;100.00
7824;BME280;3957;48.61947800;9.05303100;2023-01-24T00:02:24;97284.03;;;-0.72;100.00
7824;BME280;3957;48.61947800;9.05303100;2023-01-24T00:03:25;97286.66;;;-0.72;100.00
7824;BME280;3957;48.61947800;9.05303100;2023-01-24T00:04:25;97289.19;;;-0.71;100.00
7824;BME280;3957;48.61947800;9.05303100;2023-01-24T00:05:26;97282.38;;;-0.73;100.00
7824;BME280;3957;48.61947800;9.05303100;2023-01-24T00:06:26;97286.22;;;-0.79;100.00
7824;BME280;3957;48.61947800;9.05303100;2023-01-24T00:07:26;97291.09;;;-0.73;100.00
7824;BME280;3957;48.61947800;9.05303100;2023-01-24T00:08:27;97274.50;;;-0.73;100.00
7824;BME280;3957;48.61947800;9.05303100;2023-01-24T00:09:27;97282.56;;;-0.76;100.00
7824;BME280;3957;48.61947800;9.05303100;2023-01-24T00:10:27;97286.16;;;-0.77;100.00
7824;BME280;3957;48.61947800;9.05303100;2023-01-24T00:11:29;97288.78;;;-0.77;100.00
7824;BME280;3957;48.61947800;9.05303100;2023-01-24T00:12:29;97281.72;;;-0.77;100.00
7824;BME280;3957;48.61947800;9.05303100;2023-01-24T00:13:30;97284.56;;;-0.80;100.00
7824;BME280;3957;48.61947800;9.05303100;2023-01-24T00:14:30;97282.56;;;-0.76;100.00
7824;BME280;3957;48.61947800;9.05303100;2023-01-24T00:15:31;97274.88;;;-0.79;100.00
7824;BME280;3957;48.61947800;9.05303100;2023-01-24T00:16:31;97276.78;;;-0.69;100.00
7824;BME280;3957;48.61947800;9.05303100;2023-01-24T00:17:32;97283.84;;;-0.69;100.00
7824;BME280;3957;48.61947800;9.05303100;2023-01-24T00:18:32;97291.19;;;-0.74;100.00
7824;BME280;3957;48.61947800;9.05303100;2023-01-24T00:19:33;97293.06;;;-0.76;100.00
7824;BME280;3957;48.61947800;9.05303100;2023-01-24T00:20:34;97285.94;;;-0.74;100.00
7824;BME280;3957;48.61947800;9.05303100;2023-01-24T00:21:34;97284.25;;;-0.75;100.00
7824;BME280;3957;48.61947800;9.05303100;2023-01-24T00:22:35;97289.09;;;-0.69;100.00
7824;BME280;3957;48.61947800;9.05303100;2023-01-24T00:23:36;97285.63;;;-0.70;100.00
7824;BME280;3957;48.61947800;9.05303100;2023-01-24T00:24:36;97281.28;;;-0.71;100.00
7824;BME280;3957;48.61947800;9.05303100;2023-01-24T00:25:37;97272.59;;;-0.71;100.00
7824;BME280;3957;48.61947800;9.05303100;2023-01-24T00:26:37;97275.63;;;-0.77;100.00
7824;BME280;3957;48.61947800;9.05303100;2023-01-24T00:27:38;97281.94;;;-0.80;100.00
7824;BME280;3957;48.61947800;9.05303100;2023-01-24T00:28:39;97277.63;;;-0.81;100.00
7824;BME280;3957;48.61947800;9.05303100;2023-01-24T00:29:39;97278.28;;;-0.77;100.00
7824;BME280;3957;48.61947800;9.05303100;2023-01-24T00:30:39;97281.84;;;-0.78;100.00
7824;BME280;3957;48.61947800;9.05303100;2023-01-24T00:31:41;97286.16;;;-0.77;100.00
7824;BME280;3957;48.61947800;9.05303100;2023-01-24T00:32:41;97283.41;;;-0.76;100.00
7824;BME280;3957;48.61947800;9.05303100;2023-01-24T00:33:43;97280.47;;;-0.71;100.00
7824;BME280;3957;48.61947800;9.05303100;2023-01-24T00:34:43;97286.56;;;-0.71;100.00
7824;BME280;3957;48.61947800;9.05303100;2023-01-24T00:35:44;97284.47;;;-0.65;100.00
7824;BME280;3957;48.61947800;9.05303100;2023-01-24T00:36:44;97288.25;;;-0.70;100.00
7824;BME280;3957;48.61947800;9.05303100;2023-01-24T00:37:45;97294.16;;;-0.66;100.00
7824;BME280;3957;48.61947800;9.05303100;2023-01-24T00:38:45;97293.94;;;-0.63;100.00
7824;BME280;3957;48.61947800;9.05303100;2023-01-24T00:39:45;97293.19;;;-0.65;100.00
7824;BME280;3957;48.61947800;9.05303100;2023-01-24T00:40:47;97290.75;;;-0.68;100.00
7824;BME280;3957;48.61947800;9.05303100;2023-01-24T00:41:47;97289.19;;;-0.71;100.00
7824;BME280;3957;48.61947800;9.05303100;2023-01-24T00:42:47;97284.91;;;-0.72;100.00
7824;BME280;3957;48.61947800;9.05303100;2023-01-24T00:43:48;97301.00;;;-0.63;100.00
7824;BME280;3957;48.61947800;9.05303100;2023-01-24T00:44:51;97294.88;;;-0.64;100.00
7824;BME280;3957;48.61947800;9.05303100;2023-01-24T00:45:52;97298.44;;;-0.65;100.00
7824;BME280;3957;48.61947800;9.05303100;2023-01-24T00:46:52;97299.50;;;-0.67;100.00
7824;BME280;3957;48.61947800;9.05303100;2023-01-24T00:47:53;97295.31;;;-0.70;100.00
7824;BME280;3957;48.61947800;9.05303100;2023-01-24T00:48:53;97298.31;;;-0.76;100.00
7824;BME280;3957;48.61947800;9.05303100;2023-01-24T00:49:54;97297.38;;;-0.75;100.00
7824;BME280;3957;48.61947800;9.05303100;2023-01-24T00:50:54;97296.56;;;-0.76;100.00
7824;BME280;3957;48.61947800;9.05303100;2023-01-24T00:51:54;97302.66;;;-0.75;100.00
7824;BME280;3957;48.61947800;9.05303100;2023-01-24T00:52:55;97294.88;;;-0.77;100.00
7824;BME280;3957;48.61947800;9.05303100;2023-01-24T00:53:55;97301.81;;;-0.76;100.00
7824;BME280;3957;48.61947800;9.05303100;2023-01-24T00:54:56;97302.66;;;-0.75;100.00
7824;BME280;3957;48.61947800;9.05303100;2023-01-24T00:55:56;97298.31;;;-0.76;100.00
7824;BME280;3957;48.61947800;9.05303100;2023-01-24T00:56:56;97301.28;;;-0.81;100.00
7824;BME280;3957;48.61947800;9.05303100;2023-01-24T00:57:57;97298.16;;;-0.73;100.00
7824;BME280;3957;48.61947800;9.05303100;2023-01-24T00:58:57;97299.28;;;-0.77;100.00
7824;BME280;3957;48.61947800;9.05303100;2023-01-24T00:59:57;97298.31;;;-0.76;100.00
7824;BME280;3957;48.61947800;9.05303100;2023-01-24T01:00:58;97302.00;;;-0.79;100.00
7824;BME280;3957;48.61947800;9.05303100;2023-01-24T01:02:00;97301.06;;;-0.78;100.00
7824;BME280;3957;48.61947800;9.05303100;2023-01-24T01:03:00;97303.16;;;-0.83;100.00
7824;BME280;3957;48.61947800;9.05303100;2023-01-24T01:04:01;97304.13;;;-0.84;100.00
7824;BME280;3957;48.61947800;9.05303100;2023-01-24T01:05:01;97310.31;;;-0.85;100.00
7824;BME280;3957;48.61947800;9.05303100;2023-01-24T01:06:04;97312.13;;;-0.73;100.00
7824;BME280;3957;48.61947800;9.05303100;2023-01-24T01:07:05;97314.09;;;-0.76;100.00
7824;BME280;3957;48.61947800;9.05303100;2023-01-24T01:08:06;97314.31;;;-0.79;100.00
7824;BME280;3957;48.61947800;9.05303100;2023-01-24T01:09:06;97311.78;;;-0.81;100.00
7824;BME280;3957;48.61947800;9.05303100;2023-01-24T01:10:08;97315.25;;;-0.80;100.00
7824;BME280;3957;48.61947800;9.05303100;2023-01-24T01:11:09;97306.41;;;-0.79;100.00
7824;BME280;3957;48.61947800;9.05303100;2023-01-24T01:12:09;97309.25;;;-0.82;100.00
7824;BME280;3957;48.61947800;9.05303100;2023-01-24T01:13:11;97320.91;;;-0.87;100.00
7824;BME280;3957;48.61947800;9.05303100;2023-01-24T01:14:12;97312.00;;;-0.84;100.00
7824;BME280;3957;48.61947800;9.05303100;2023-01-24T01:15:13;97320.06;;;-0.87;100.00
7824;BME280;3957;48.61947800;9.05303100;2023-01-24T01:16:18;97320.91;;;-0.87;100.00
7824;BME280;3957;48.61947800;9.05303100;2023-01-24T01:17:19;97325.41;;;-0.89;100.00
7824;BME280;3957;48.61947800;9.05303100;2023-01-24T01:18:20;97319.22;;;-0.88;100.00
7824;BME280;3957;48.61947800;9.05303100;2023-01-24T01:19:20;97316.22;;;-0.81;100.00
7824;BME280;3957;48.61947800;9.05303100;2023-01-24T01:20:22;97320.72;;;-0.83;100.00
7824;BME280;3957;48.61947800;9.05303100;2023-01-24T01:21:22;97314.53;;;-0.82;100.00
7824;BME280;3957;48.61947800;9.05303100;2023-01-24T01:22:23;97310.63;;;-0.77;100.00
7824;BME280;3957;48.61947800;9.05303100;2023-01-24T01:23:24;97311.69;;;-0.79;100.00
7824;BME280;3957;48.61947800;9.05303100;2023-01-24T01:24:25;97328.38;;;-0.80;100.00
7824;BME280;3957;48.61947800;9.05303100;2023-01-24T01:25:25;97319.66;;;-0.81;100.00
7824;BME280;3957;48.61947800;9.05303100;2023-01-24T01:26:26;97313.59;;;-0.81;100.00
7824;BME280;3957;48.61947800;9.05303100;2023-01-24T01:27:26;97319.03;;;-0.84;100.00
7824;BME280;3957;48.61947800;9.05303100;2023-01-24T01:28:27;97320.72;;;-0.83;100.00
7824;BME280;3957;48.61947800;9.05303100;2023-01-24T01:29:28;97310.97;;;-0.81;100.00
7824;BME280;3957;48.61947800;9.05303100;2023-01-24T01:30:28;97321.47;;;-0.81;100.00
7824;BME280;3957;48.61947800;9.05303100;2023-01-24T01:31:29;97321.38;;;-0.80;100.00
7824;BME280;3957;48.61947800;9.05303100;2023-01-24T01:32:29;97331.00;;;-0.80;100.00
7824;BME280;3957;48.61947800;9.05303100;2023-01-24T01:33:29;97326.91;;;-0.84;100.00
7824;BME280;3957;48.61947800;9.05303100;2023-01-24T01:34:30;97324.28;;;-0.84;100.00
7824;BME280;3957;48.61947800;9.05303100;2023-01-24T01:35:30;97320.72;;;-0.83;100.00
7824;BME280;3957;48.61947800;9.05303100;2023-01-24T01:36:31;97317.97;;;-0.82;100.00
7824;BME280;3957;48.61947800;9.05303100;2023-01-24T01:37:31;97318.63;;;-0.78;100.00
7824;BME280;3957;48.61947800;9.05303100;2023-01-24T01:38:32;97316.22;;;-0.81;100.00
7824;BME280;3957;48.61947800;9.05303100;2023-01-24T01:39:32;97328.50;;;-0.82;100.00
7824;BME280;3957;48.61947800;9.05303100;2023-01-24T01:40:32;97328.69;;;-0.85;100.00
7824;BME280;3957;48.61947800;9.05303100;2023-01-24T01:41:33;97325.41;;;-0.89;100.00
7824;BME280;3957;48.61947800;9.05303100;2023-01-24T01:42:51;97333.41;;;-0.90;100.00
7824;BME280;3957;48.61947800;9.05303100;2023-01-24T01:43:52;97328.91;;;-0.88;100.00
7824;BME280;3957;48.61947800;9.05303100;2023-01-24T01:45:37;97332.47;;;-0.89;100.00
7824;BME280;3957;48.61947800;9.05303100;2023-01-24T01:46:47;97328.69;;;-0.85;100.00
7824;BME280;3957;48.61947800;9.05303100;2023-01-24T01:47:49;97327.00;;;-0.86;100.00
7824;BME280;3957;48.61947800;9.05303100;2023-01-24T01:48:52;97327.44;;;-0.79;100.00
7824;BME280;3957;48.61947800;9.05303100;2023-01-24T01:51:31;97323.56;;;-0.87;100.00
7824;BME280;3957;48.61947800;9.05303100;2023-01-24T01:52:39;97328.69;;;-0.85;100.00
7824;BME280;3957;48.61947800;9.05303100;2023-01-24T01:53:49;97324.50;;;-0.88;100.00
7824;BME280;3957;48.61947800;9.05303100;2023-01-24T01:54:53;97327.13;;;-0.88;100.00
7824;BME280;3957;48.61947800;9.05303100;2023-01-24T01:56:07;97330.69;;;-0.89;100.00
7824;BME280;3957;48.61947800;9.05303100;2023-01-24T01:57:20;97327.56;;;-0.81;100.00
7824;BME280;3957;48.61947800;9.05303100;2023-01-24T01:58:22;97327.13;;;-0.75;100.00
7824;BME280;3957;48.61947800;9.05303100;2023-01-24T01:59:27;97326.28;;;-0.75;100.00
7824;BME280;3957;48.61947800;9.05303100;2023-01-24T02:00:29;97331.00;;;-0.80;100.00
7824;BME280;3957;48.61947800;9.05303100;2023-01-24T02:01:30;97330.84;;;-0.77;100.00
7824;BME280;3957;48.61947800;9.05303100;2023-01-24T02:02:31;97322.94;;;-0.77;100.00
7824;BME280;3957;48.61947800;9.05303100;2023-01-24T02:03:36;97325.13;;;-0.84;100.00
7824;BME280;3957;48.61947800;9.05303100;2023-01-24T02:04:48;97329.13;;;-0.78;100.00
7824;BME280;3957;48.61947800;9.05303100;2023-01-24T02:05:50;97332.59;;;-0.78;100.00
7824;BME280;3957;48.61947800;9.05303100;2023-01-24T02:06:56;97335.34;;;-0.79;100.00
7824;BME280;3957;48.61947800;9.05303100;2023-01-24T02:08:03;97334.59;;;-0.81;100.00
7824;BME280;3957;48.61947800;9.05303100;2023-01-24T02:09:07;97329.34;;;-0.81;100.00
7824;BME280;3957;48.61947800;9.05303100;2023-01-24T02:10:09;97328.69;;;-0.85;100.00
7824;BME280;3957;48.61947800;9.05303100;2023-01-24T02:11:11;97327.56;;;-0.81;100.00
7824;BME280;3957;48.61947800;9.05303100;2023-01-24T02:12:36;97331.44;;;-0.87;100.00
7824;BME280;3957;48.61947800;9.05303100;2023-01-24T02:13:39;97325.13;;;-0.84;100.00
7824;BME280;3957;48.61947800;9.05303100;2023-01-24T02:14:44;97331.31;;;-0.85;100.00
7824;BME280;3957;48.61947800;9.05303100;2023-01-24T02:16:03;97327.00;;;-0.86;100.00
7824;BME280;3957;48.61947800;9.05303100;2023-01-24T02:17:04;97334.06;;;-0.87;100.00
7824;BME280;3957;48.61947800;9.05303100;2023-01-24T02:18:06;97324.50;;;-0.88;100.00
7824;BME280;3957;48.61947800;9.05303100;2023-01-24T02:19:14;97333.75;;;-0.82;100.00
7824;BME280;3957;48.61947800;9.05303100;2023-01-24T02:20:40;97334.06;;;-0.74;100.00
7824;BME280;3957;48.61947800;9.05303100;2023-01-24T02:21:42;97340.47;;;-0.78;100.00
7824;BME280;3957;48.61947800;9.05303100;2023-01-24T02:24:30;97332.91;;;-0.82;100.00
7824;BME280;3957;48.61947800;9.05303100;2023-01-24T02:26:57;97332.06;;;-0.83;100.00
7824;BME280;3957;48.61947800;9.05303100;2023-01-24T02:27:57;97331.97;;;-0.81;100.00
7824;BME280;3957;48.61947800;9.05303100;2023-01-24T02:29:04;97340.91;;;-0.84;100.00
7824;BME280;3957;48.61947800;9.05303100;2023-01-24T02:30:06;97345.41;;;-0.86;100.00
7824;BME280;3957;48.61947800;9.05303100;2023-01-24T02:31:06;97338.06;;;-0.81;100.00
7824;BME280;3957;48.61947800;9.05303100;2023-01-24T02:32:07;97338.38;;;-0.86;100.00
7824;BME280;3957;48.61947800;9.05303100;2023-01-24T02:33:18;97341.72;;;-0.83;100.00
7824;BME280;3957;48.61947800;9.05303100;2023-01-24T02:34:19;97347.09;;;-0.85;100.00
7824;BME280;3957;48.61947800;9.05303100;2023-01-24T02:36:33;97335.81;;;-0.87;100.00
7824;BME280;3957;48.61947800;9.05303100;2023-01-24T02:37:36;97341.09;;;-0.87;100.00
7824;BME280;3957;48.61947800;9.05303100;2023-01-24T02:38:37;97341.00;;;-0.86;100.00
7824;BME280;3957;48.61947800;9.05303100;2023-01-24T02:40:44;97338.91;;;-0.80;100.00
7824;BME280;3957;48.61947800;9.05303100;2023-01-24T02:41:52;97335.53;;;-0.82;100.00
7824;BME280;3957;48.61947800;9.05303100;2023-01-24T02:42:54;97341.94;;;-0.87;100.00
7824;BME280;3957;48.61947800;9.05303100;2023-01-24T02:44:01;97341.72;;;-0.83;100.00
7824;BME280;3957;48.61947800;9.05303100;2023-01-24T02:45:23;97348.13;;;-0.88;100.00
7824;BME280;3957;48.61947800;9.05303100;2023-01-24T02:46:29;97348.25;;;-0.89;100.00
7824;BME280;3957;48.61947800;9.05303100;2023-01-24T02:47:34;97346.66;;;-0.92;100.00
7824;BME280;3957;48.61947800;9.05303100;2023-01-24T02:48:37;97344.84;;;-0.91;100.00
7824;BME280;3957;48.61947800;9.05303100;2023-01-24T02:49:37;97342.22;;;-0.91;100.00
7824;BME280;3957;48.61947800;9.05303100;2023-01-24T02:50:38;97344.03;;;-0.92;100.00
7824;BME280;3957;48.61947800;9.05303100;2023-01-24T02:51:56;97345.50;;;-0.88;100.00
7824;BME280;3957;48.61947800;9.05303100;2023-01-24T02:53:16;97343.09;;;-0.91;100.00
7824;BME280;3957;48.61947800;9.05303100;2023-01-24T02:54:32;97345.63;;;-0.89;100.00
7824;BME280;3957;48.61947800;9.05303100;2023-01-24T02:55:33;97349.06;;;-0.89;100.00
7824;BME280;3957;48.61947800;9.05303100;2023-01-24T02:56:54;97349.50;;;-0.95;100.00
7824;BME280;3957;48.61947800;9.05303100;2023-01-24T02:58:13;97352.84;;;-0.93;100.00
7824;BME280;3957;48.61947800;9.05303100;2023-01-24T02:59:13;97345.72;;;-0.91;100.00
7824;BME280;3957;48.61947800;9.05303100;2023-01-24T03:00:14;97348.91;;;-0.86;100.00
7824;BME280;3957;48.61947800;9.05303100;2023-01-24T03:01:15;97341.63;;;-0.82;100.00
7824;BME280;3957;48.61947800;9.05303100;2023-01-24T03:02:18;97344.78;;;-0.90;100.00
7824;BME280;3957;48.61947800;9.05303100;2023-01-24T03:03:18;97342.34;;;-0.93;100.00
7824;BME280;3957;48.61947800;9.05303100;2023-01-24T03:04:20;97344.22;;;-0.95;100.00
7824;BME280;3957;48.61947800;9.05303100;2023-01-24T03:05:20;97352.00;;;-0.93;100.00
7824;BME280;3957;48.61947800;9.05303100;2023-01-24T03:06:21;97342.22;;;-0.91;100.00
7824;BME280;3957;48.61947800;9.05303100;2023-01-24T03:07:21;97345.50;;;-0.88;100.00
7824;BME280;3957;48.61947800;9.05303100;2023-01-24T03:08:30;97344.03;;;-0.92;100.00
7824;BME280;3957;48.61947800;9.05303100;2023-01-24T03:09:32;97351.53;;;-0.86;100.00
7824;BME280;3957;48.61947800;9.05303100;2023-01-24T03:10:37;97348.25;;;-0.89;100.00
7824;BME280;3957;48.61947800;9.05303100;2023-01-24T03:11:37;97355.28;;;-0.90;100.00
7824;BME280;3957;48.61947800;9.05303100;2023-01-24T03:12:38;97351.22;;;-0.81;100.00
7824;BME280;3957;48.61947800;9.05303100;2023-01-24T03:13:57;97349.72;;;-0.85;100.00
7824;BME280;3957;48.61947800;9.05303100;2023-01-24T03:15:17;97353.38;;;-0.88;100.00
7824;BME280;3957;48.61947800;9.05303100;2023-01-24T03:16:36;97344.78;;;-0.90;100.00
7824;BME280;3957;48.61947800;9.05303100;2023-01-24T03:17:58;97352.00;;;-0.93;100.00
7824;BME280;3957;48.61947800;9.05303100;2023-01-24T03:19:17;97355.56;;;-0.94;100.00
7824;BME280;3957;48.61947800;9.05303100;2023-01-24T03:20:37;97351.34;;;-0.97;100.00
7824;BME280;3957;48.61947800;9.05303100;2023-01-24T03:21:56;97346.66;;;-0.92;100.00
7824;BME280;3957;48.61947800;9.05303100;2023-01-24T03:23:15;97351.81;;;-0.90;100.00
7824;BME280;3957;48.61947800;9.05303100;2023-01-24T03:24:34;97346.44;;;-0.89;100.00
7824;BME280;3957;48.61947800;9.05303100;2023-01-24T03:25:54;97350.22;;;-0.93;100.00
7824;BME280;3957;48.61947800;9.05303100;2023-01-24T03:27:14;97347.91;;;-0.97;100.00
7824;BME280;3957;48.61947800;9.05303100;2023-01-24T03:28:34;97353.88;;;-0.95;100.00
7824;BME280;3957;48.61947800;9.05303100;2023-01-24T03:29:53;97347.06;;;-0.98;100.00
7824;BME280;3957;48.61947800;9.05303100;2023-01-24T03:31:13;97349.50;;;-0.95;100.00
7824;BME280;3957;48.61947800;9.05303100;2023-01-24T03:32:32;97355.06;;;-0.99;100.00
7824;BME280;3957;48.61947800;9.05303100;2023-01-24T03:33:51;97349.59;;;-0.96;100.00
7824;BME280;3957;48.61947800;9.05303100;2023-01-24T03:35:11;97354.94;;;-0.98;100.00
7824;BME280;3957;48.61947800;9.05303100;2023-01-24T03:36:11;97354.44;;;-0.90;100.00
7824;BME280;3957;48.61947800;9.05303100;2023-01-24T03:37:22;97352.25;;;-0.83;100.00
7824;BME280;3957;48.61947800;9.05303100;2023-01-24T03:38:42;97352.75;;;-0.91;100.00
7824;BME280;3957;48.61947800;9.05303100;2023-01-24T03:40:09;97358.75;;;-0.89;100.00
7824;BME280;3957;48.61947800;9.05303100;2023-01-24T03:41:10;97358.09;;;-0.93;100.00
7824;BME280;3957;48.61947800;9.05303100;2023-01-24T03:42:12;97352.75;;;-0.91;100.00
7824;BME280;3957;48.61947800;9.05303100;2023-01-24T03:43:13;97354.44;;;-0.90;100.00
7824;BME280;3957;48.61947800;9.05303100;2023-01-24T03:44:14;97355.56;;;-0.94;100.00
7824;BME280;3957;48.61947800;9.05303100;2023-01-24T03:45:27;97352.84;;;-0.93;100.00
7824;BME280;3957;48.61947800;9.05303100;2023-01-24T03:46:29;97354.75;;;-0.95;100.00
7824;BME280;3957;48.61947800;9.05303100;2023-01-24T03:47:29;97359.91;;;-0.93;100.00
7824;BME280;3957;48.61947800;9.05303100;2023-01-24T03:48:30;97355.47;;;-0.93;100.00
7824;BME280;3957;48.61947800;9.05303100;2023-01-24T03:49:36;97359.59;;;-0.89;100.00
7824;BME280;3957;48.61947800;9.05303100;2023-01-24T03:50:56;97352.13;;;-0.95;100.00
7824;BME280;3957;48.61947800;9.05303100;2023-01-24T03:52:15;97361.38;;;-0.89;100.00
7824;BME280;3957;48.61947800;9.05303100;2023-01-24T03:53:34;97360.13;;;-0.83;100.00
7824;BME280;3957;48.61947800;9.05303100;2023-01-24T03:54:34;97368.50;;;-0.91;100.00
7824;BME280;3957;48.61947800;9.05303100;2023-01-24T03:55:38;97361.47;;;-0.91;100.00
7824;BME280;3957;48.61947800;9.05303100;2023-01-24T03:56:39;97358.00;;;-0.91;100.00
7824;BME280;3957;48.61947800;9.05303100;2023-01-24T03:57:40;97367.88;;;-0.95;100.00
7824;BME280;3957;48.61947800;9.05303100;2023-01-24T03:58:42;97361.69;;;-0.94;100.00
7824;BME280;3957;48.61947800;9.05303100;2023-01-24T03:59:45;97363.25;;;-0.91;100.00
7824;BME280;3957;48.61947800;9.05303100;2023-01-24T04:00:46;97364.66;;;-0.86;100.00
7824;BME280;3957;48.61947800;9.05303100;2023-01-24T04:02:12;97366.97;;;-0.81;100.00
7824;BME280;3957;48.61947800;9.05303100;2023-01-24T04:03:14;97366.44;;;-0.86;100.00
7824;BME280;3957;48.61947800;9.05303100;2023-01-24T04:04:14;97370.44;;;-0.80;100.00
7824;BME280;3957;48.61947800;9.05303100;2023-01-24T04:05:14;97365.94;;;-0.78;100.00
7824;BME280;3957;48.61947800;9.05303100;2023-01-24T04:06:17;97366.13;;;-0.81;100.00
7824;BME280;3957;48.61947800;9.05303100;2023-01-24T04:07:19;97368.78;;;-0.81;100.00
7824;BME280;3957;48.61947800;9.05303100;2023-01-24T04:08:20;97369.72;;;-0.82;100.00
7824;BME280;3957;48.61947800;9.05303100;2023-01-24T04:09:21;97369.72;;;-0.82;100.00
7824;BME280;3957;48.61947800;9.05303100;2023-01-24T04:10:22;97367.06;;;-0.82;100.00
7824;BME280;3957;48.61947800;9.05303100;2023-01-24T04:11:24;97364.34;;;-0.81;100.00
7824;BME280;3957;48.61947800;9.05303100;2023-01-24T04:12:29;97369.16;;;-0.88;100.00
7824;BME280;3957;48.61947800;9.05303100;2023-01-24T04:13:29;97370.31;;;-0.92;100.00
7824;BME280;3957;48.61947800;9.05303100;2023-01-24T04:14:32;97367.56;;;-0.90;100.00
7824;BME280;3957;48.61947800;9.05303100;2023-01-24T04:15:39;97372.81;;;-0.90;100.00
7824;BME280;3957;48.61947800;9.05303100;2023-01-24T04:16:59;97366.44;;;-0.86;100.00
7824;BME280;3957;48.61947800;9.05303100;2023-01-24T04:18:06;97367.28;;;-0.86;100.00
7824;BME280;3957;48.61947800;9.05303100;2023-01-24T04:19:07;97364.44;;;-0.82;100.00
7824;BME280;3957;48.61947800;9.05303100;2023-01-24T04:20:08;97370.53;;;-0.82;100.00
7824;BME280;3957;48.61947800;9.05303100;2023-01-24T04:21:08;97365.50;;;-0.85;100.00
7824;BME280;3957;48.61947800;9.05303100;2023-01-24T04:22:09;97373.16;;;-0.82;100.00
7824;BME280;3957;48.61947800;9.05303100;2023-01-24T04:23:12;97365.28;;;-0.82;100.00
7824;BME280;3957;48.61947800;9.05303100;2023-01-24T04:24:13;97360.13;;;-0.83;100.00
7824;BME280;3957;48.61947800;9.05303100;2023-01-24T04:25:16;97358.53;;;-0.86;100.00
7824;BME280;3957;48.61947800;9.05303100;2023-01-24T04:26:19;97365.50;;;-0.85;100.00
7824;BME280;3957;48.61947800;9.05303100;2023-01-24T04:27:21;97363.78;;;-0.86;100.00
7824;BME280;3957;48.61947800;9.05303100;2023-01-24T04:28:40;97363.06;;;-0.88;100.00
7824;BME280;3957;48.61947800;9.05303100;2023-01-24T04:29:40;97366.31;;;-0.84;100.00
7824;BME280;3957;48.61947800;9.05303100;2023-01-24T04:30:41;97362.97;;;-0.87;100.00
7824;BME280;3957;48.61947800;9.05303100;2023-01-24T04:31:54;97368.94;;;-0.84;100.00
7824;BME280;3957;48.61947800;9.05303100;2023-01-24T04:33:02;97368.44;;;-0.90;100.00
7824;BME280;3957;48.61947800;9.05303100;2023-01-24T04:34:03;97368.44;;;-0.90;100.00
7824;BME280;3957;48.61947800;9.05303100;2023-01-24T04:35:05;97368.44;;;-0.90;100.00
7824;BME280;3957;48.61947800;9.05303100;2023-01-24T04:36:22;97362.31;;;-0.90;100.00
7824;BME280;3957;48.61947800;9.05303100;2023-01-24T04:37:22;97359.91;;;-0.93;100.00
7824;BME280;3957;48.61947800;9.05303100;2023-01-24T04:38:23;97356.84;;;-0.87;100.00
7824;BME280;3957;48.61947800;9.05303100;2023-01-24T04:39:46;97362.31;;;-0.90;100.00
7824;BME280;3957;48.61947800;9.05303100;2023-01-24T04:41:00;97365.88;;;-0.91;100.00
7824;BME280;3957;48.61947800;9.05303100;2023-01-24T04:42:03;97362.53;;;-0.93;100.00
7824;BME280;3957;48.61947800;9.05303100;2023-01-24T04:43:06;97367.69;;;-0.92;100.00
7824;BME280;3957;48.61947800;9.05303100;2023-01-24T04:44:07;97360.63;;;-0.91;100.00
7824;BME280;3957;48.61947800;9.05303100;2023-01-24T04:45:08;97366.84;;;-0.92;100.00
7824;BME280;3957;48.61947800;9.05303100;2023-01-24T04:46:09;97371.44;;;-0.96;100.00
7824;BME280;3957;48.61947800;9.05303100;2023-01-24T04:47:30;97362.84;;;-0.98;100.00
7824;BME280;3957;48.61947800;9.05303100;2023-01-24T04:48:30;97373.03;;;-0.93;100.00
7824;BME280;3957;48.61947800;9.05303100;2023-01-24T04:49:31;97375.56;;;-0.92;100.00
7824;BME280;3957;48.61947800;9.05303100;2023-01-24T04:50:31;97366.09;;;-0.94;100.00
7824;BME280;3957;48.61947800;9.05303100;2023-01-24T04:51:32;97374.84;;;-0.94;100.00
7824;BME280;3957;48.61947800;9.05303100;2023-01-24T04:52:33;97376.69;;;-0.96;100.00
7824;BME280;3957;48.61947800;9.05303100;2023-01-24T04:53:40;97368.72;;;-0.94;100.00
7824;BME280;3957;48.61947800;9.05303100;2023-01-24T04:54:41;97375.75;;;-0.95;100.00
7824;BME280;3957;48.61947800;9.05303100;2023-01-24T04:55:41;97368.59;;;-0.93;100.00
7824;BME280;3957;48.61947800;9.05303100;2023-01-24T04:56:42;97375.66;;;-0.93;100.00
7824;BME280;3957;48.61947800;9.05303100;2023-01-24T04:57:43;97373.69;;;-0.90;100.00
7824;BME280;3957;48.61947800;9.05303100;2023-01-24T04:58:44;97377.78;;;-0.86;100.00
7824;BME280;3957;48.61947800;9.05303100;2023-01-24T04:59:44;97377.78;;;-0.86;100.00
7824;BME280;3957;48.61947800;9.05303100;2023-01-24T05:00:48;97370.75;;;-0.85;100.00
7824;BME280;3957;48.61947800;9.05303100;2023-01-24T05:01:48;97382.50;;;-0.91;100.00
7824;BME280;3957;48.61947800;9.05303100;2023-01-24T05:03:09;97375.88;;;-0.96;100.00
7824;BME280;3957;48.61947800;9.05303100;2023-01-24T05:04:09;97375.00;;;-0.97;100.00
7824;BME280;3957;48.61947800;9.05303100;2023-01-24T05:05:10;97376.06;;;-0.99;100.00
7824;BME280;3957;48.61947800;9.05303100;2023-01-24T05:06:11;97383.53;;;-0.93;100.00
7824;BME280;3957;48.61947800;9.05303100;2023-01-24T05:07:12;97382.78;;;-0.95;100.00
7824;BME280;3957;48.61947800;9.05303100;2023-01-24T05:08:14;97387.22;;;-0.96;100.00
7824;BME280;3957;48.61947800;9.05303100;2023-01-24T05:09:15;97388.59;;;-0.90;100.00
7824;BME280;3957;48.61947800;9.05303100;2023-01-24T05:10:26;97386.16;;;-0.93;100.00
7824;BME280;3957;48.61947800;9.05303100;2023-01-24T05:11:27;97386.06;;;-0.92;100.00
7824;BME280;3957;48.61947800;9.05303100;2023-01-24T05:12:31;97386.06;;;-0.92;100.00